Time;durP1;ratioP1;P1;durP2;ratioP2;P2;SDS_P1;SDS_P2;PMS_P1;PMS_P2;Temp;Humidity;BMP_temperature;BMP_pressure;BME280_temperature;BME280_humidity;BME280_pressure;Samples;Min_cycle;Max_cycle;Signal;HPM_P1;HPM_P2
2021/09/18 00:00:19;;;;;;;1.98;1.20;;;;;;;;;;5066765;28;20476;-56
2021/09/18 00:02:45;;;;;;;1.20;1.10;;;;;;;;;;5066507;28;20177;-54
2021/09/18 00:05:11;;;;;;;1.52;1.30;;;;;;;;;;5064875;28;20115;-54
2021/09/18 00:07:37;;;;;;;1.90;1.10;;;;;;;;;;5066616;28;20122;-55
2021/09/18 00:10:05;;;;;;;2.92;1.00;;;;;;;;;;5066371;28;20024;-56
2021/09/18 00:12:31;;;;;;;1.25;0.95;;;;;;;;;;5067145;28;20086;-55
2021/09/18 00:14:57;;;;;;;2.83;0.93;;;;;;;;;;5078519;28;20028;-53
2021/09/18 00:17:25;;;;;;;1.45;1.10;;;;;;;;;;5066597;28;20555;-55
2021/09/18 00:19:52;;;;;;;1.30;1.20;;;;;;;;;;5066373;28;20032;-55
2021/09/18 00:22:18;;;;;;;1.20;1.10;;;;;;;;;;5066539;28;20059;-55
2021/09/18 00:24:44;;;;;;;2.30;1.48;;;;;;;;;;5069782;28;20039;-55
2021/09/18 00:27:10;;;;;;;1.73;1.00;;;;;;;;;;5086198;28;20024;-53
2021/09/18 00:29:36;;;;;;;1.13;0.95;;;;;;;;;;5086357;28;20418;-54
2021/09/18 00:32:03;;;;;;;1.13;1.02;;;;;;;;;;5086938;28;20173;-53
2021/09/18 00:34:29;;;;;;;1.60;1.00;;;;;;;;;;5085595;28;20626;-53
2021/09/18 00:36:55;;;;;;;1.63;1.10;;;;;;;;;;5065946;28;20021;-54
2021/09/18 00:39:21;;;;;;;1.55;0.95;;;;;;;;;;5066241;28;20506;-54
2021/09/18 00:41:47;;;;;;;1.58;0.90;;;;;;;;;;5066403;28;20983;-54
2021/09/18 00:44:17;;;;;;;1.60;1.20;;;;;;;;;;5066276;28;20028;-55
2021/09/18 00:46:45;;;;;;;1.20;1.10;;;;;;;;;;5090488;28;20476;-55
2021/09/18 00:49:11;;;;;;;1.15;1.05;;;;;;;;;;5092752;28;20032;-55
2021/09/18 00:51:37;;;;;;;1.48;1.20;;;;;;;;;;5091862;28;20386;-55
2021/09/18 00:54:04;;;;;;;1.70;1.35;;;;;;;;;;5092638;28;20028;-55
2021/09/18 00:56:30;;;;;;;2.30;1.30;;;;;;;;;;5057785;28;20028;-55
2021/09/18 00:58:56;;;;;;;1.58;1.48;;;;;;;;;;5072465;28;20586;-53
2021/09/18 01:01:22;;;;;;;1.75;1.30;;;;;;;;;;5072717;28;20024;-55
2021/09/18 01:03:48;;;;;;;2.25;1.38;;;;;;;;;;5072169;28;20066;-54
2021/09/18 01:06:14;;;;;;;1.90;1.40;;;;;;;;;;5071435;28;20078;-54
2021/09/18 01:08:42;;;;;;;1.67;1.30;;;;;;;;;;5072376;28;20107;-54
2021/09/18 01:11:08;;;;;;;1.60;1.50;;;;;;;;;;5072454;28;20031;-54
2021/09/18 01:13:34;;;;;;;2.65;1.40;;;;;;;;;;5077255;28;20028;-55
2021/09/18 01:16:01;;;;;;;1.63;1.40;;;;;;;;;;5080131;28;20029;-54
2021/09/18 01:18:27;;;;;;;1.70;1.30;;;;;;;;;;5071020;28;20104;-55
2021/09/18 01:20:53;;;;;;;2.70;1.27;;;;;;;;;;5072483;28;20029;-54
2021/09/18 01:23:22;;;;;;;1.85;1.58;;;;;;;;;;5071656;28;20033;-55
2021/09/18 01:25:49;;;;;;;1.35;1.20;;;;;;;;;;5071605;28;20033;-53
2021/09/18 01:28:15;;;;;;;2.55;1.48;;;;;;;;;;5071297;28;20036;-53
2021/09/18 01:30:42;;;;;;;1.50;1.23;;;;;;;;;;5073289;28;20447;-54
2021/09/18 01:33:08;;;;;;;1.40;1.30;;;;;;;;;;5072001;28;20103;-55
2021/09/18 01:35:35;;;;;;;1.67;1.45;;;;;;;;;;5072612;28;20017;-52
2021/09/18 01:38:01;;;;;;;1.65;1.55;;;;;;;;;;5071038;28;20483;-54
2021/09/18 01:40:28;;;;;;;1.60;1.50;;;;;;;;;;5076688;28;20352;-54
2021/09/18 01:42:55;;;;;;;2.03;1.70;;;;;;;;;;5091130;28;20078;-53
2021/09/18 01:45:21;;;;;;;2.03;1.50;;;;;;;;;;5091281;28;20074;-55
2021/09/18 01:47:49;;;;;;;1.40;1.30;;;;;;;;;;5091088;28;20039;-55
2021/09/18 01:50:25;;;;;;;3.05;1.60;;;;;;;;;;5070234;28;20028;-53
2021/09/18 01:52:52;;;;;;;2.33;1.70;;;;;;;;;;5052011;28;20399;-55
2021/09/18 01:55:18;;;;;;;1.48;1.33;;;;;;;;;;5070637;28;20044;-54
2021/09/18 01:57:45;;;;;;;1.45;1.30;;;;;;;;;;5066914;28;20107;-55
2021/09/18 02:00:12;;;;;;;1.60;1.45;;;;;;;;;;5066873;28;20035;-55
2021/09/18 02:02:40;;;;;;;2.13;1.88;;;;;;;;;;5067211;28;20294;-52
2021/09/18 02:05:06;;;;;;;1.73;1.42;;;;;;;;;;5066336;28;20031;-54
2021/09/18 02:07:32;;;;;;;2.10;1.70;;;;;;;;;;5066996;28;20090;-53
2021/09/18 02:09:59;;;;;;;1.70;1.45;;;;;;;;;;5067192;28;20039;-53
2021/09/18 02:12:26;;;;;;;1.63;1.52;;;;;;;;;;5067364;28;20040;-54
2021/09/18 02:14:53;;;;;;;1.83;1.70;;;;;;;;;;5066154;28;20081;-54
2021/09/18 02:17:20;;;;;;;1.50;1.40;;;;;;;;;;5067164;28;20552;-54
2021/09/18 02:19:46;;;;;;;1.77;1.67;;;;;;;;;;5067733;28;20103;-55
2021/09/18 02:22:12;;;;;;;2.40;1.73;;;;;;;;;;5072245;28;20104;-54
2021/09/18 02:24:39;;;;;;;1.95;1.50;;;;;;;;;;5084983;28;20033;-53
2021/09/18 02:27:06;;;;;;;2.28;1.60;;;;;;;;;;5087103;28;20751;-53
2021/09/18 02:29:32;;;;;;;2.00;1.40;;;;;;;;;;5087160;28;20183;-55
2021/09/18 02:31:58;;;;;;;1.77;1.65;;;;;;;;;;5087287;28;20028;-51
2021/09/18 02:34:24;;;;;;;1.60;1.50;;;;;;;;;;5085222;28;20028;-54
2021/09/18 02:36:50;;;;;;;3.33;1.45;;;;;;;;;;5086824;28;20032;-51
2021/09/18 02:39:17;;;;;;;1.50;1.40;;;;;;;;;;5086956;28;20104;-54
2021/09/18 02:41:44;;;;;;;1.52;1.40;;;;;;;;;;5087623;28;20024;-53
2021/09/18 02:44:10;;;;;;;2.00;1.30;;;;;;;;;;5080322;28;20024;-53
2021/09/18 02:46:36;;;;;;;1.45;1.35;;;;;;;;;;5069177;28;20124;-51
2021/09/18 02:49:02;;;;;;;1.42;1.30;;;;;;;;;;5086511;28;20032;-54
2021/09/18 02:51:28;;;;;;;1.70;1.48;;;;;;;;;;5086314;28;20031;-54
2021/09/18 02:53:54;;;;;;;1.50;1.40;;;;;;;;;;5068058;28;20551;-54
2021/09/18 02:56:21;;;;;;;1.80;1.70;;;;;;;;;;5083387;28;20024;-52
2021/09/18 02:58:47;;;;;;;1.60;1.50;;;;;;;;;;5066556;28;20100;-53
2021/09/18 03:01:14;;;;;;;1.90;1.70;;;;;;;;;;5065641;28;20120;-54
2021/09/18 03:03:40;;;;;;;2.38;1.80;;;;;;;;;;5065813;28;20530;-53
2021/09/18 03:06:06;;;;;;;1.58;1.45;;;;;;;;;;5065151;28;20120;-54
2021/09/18 03:08:33;;;;;;;2.35;1.80;;;;;;;;;;5063781;28;20108;-54
2021/09/18 03:10:59;;;;;;;1.90;1.80;;;;;;;;;;5065100;28;20495;-54
2021/09/18 03:13:25;;;;;;;1.65;1.45;;;;;;;;;;5065986;28;20112;-54
2021/09/18 03:15:51;;;;;;;2.35;1.77;;;;;;;;;;5065260;28;20039;-53
2021/09/18 03:18:17;;;;;;;1.55;1.45;;;;;;;;;;5065552;28;20055;-52
2021/09/18 03:20:44;;;;;;;1.65;1.55;;;;;;;;;;5065749;28;20031;-53
2021/09/18 03:23:10;;;;;;;1.88;1.48;;;;;;;;;;5079405;28;20587;-54
2021/09/18 03:25:36;;;;;;;1.95;1.65;;;;;;;;;;5086280;28;20032;-53
2021/09/18 03:28:02;;;;;;;1.75;1.60;;;;;;;;;;5085677;28;20115;-55
2021/09/18 03:30:28;;;;;;;1.55;1.45;;;;;;;;;;5080514;28;20028;-52
2021/09/18 03:32:54;;;;;;;2.20;1.55;;;;;;;;;;5065852;28;20550;-54
2021/09/18 03:35:20;;;;;;;1.50;1.40;;;;;;;;;;5065791;28;20021;-54
2021/09/18 03:37:46;;;;;;;2.10;1.70;;;;;;;;;;5065631;28;20032;-54
2021/09/18 03:40:13;;;;;;;1.52;1.40;;;;;;;;;;5065149;28;20024;-53
2021/09/18 03:42:39;;;;;;;1.80;1.38;;;;;;;;;;5065464;28;20047;-53
2021/09/18 03:45:06;;;;;;;1.63;1.40;;;;;;;;;;5078023;28;20039;-53
2021/09/18 03:47:32;;;;;;;1.98;1.80;;;;;;;;;;5085619;28;20122;-54
2021/09/18 03:49:58;;;;;;;1.90;1.70;;;;;;;;;;5080771;28;20021;-54
2021/09/18 03:52:26;;;;;;;1.70;1.45;;;;;;;;;;5065025;28;20036;-53
2021/09/18 03:54:53;;;;;;;1.45;1.35;;;;;;;;;;5065836;28;20021;-52
2021/09/18 03:57:19;;;;;;;2.22;1.80;;;;;;;;;;5065063;28;20165;-54
2021/09/18 03:59:45;;;;;;;1.55;1.40;;;;;;;;;;5046952;28;20510;-54
2021/09/18 04:02:11;;;;;;;2.20;1.45;;;;;;;;;;5065423;28;20028;-53
2021/09/18 04:04:37;;;;;;;1.38;1.27;;;;;;;;;;5076735;28;20036;-53
2021/09/18 04:07:03;;;;;;;1.75;1.35;;;;;;;;;;5085045;28;20487;-51
2021/09/18 04:09:29;;;;;;;1.33;1.23;;;;;;;;;;5085224;28;20032;-53
2021/09/18 04:11:55;;;;;;;1.75;1.60;;;;;;;;;;5083267;28;20038;-53
2021/09/18 04:14:21;;;;;;;1.65;1.50;;;;;;;;;;5085381;28;20324;-53
2021/09/18 04:16:48;;;;;;;1.70;1.60;;;;;;;;;;5085642;28;20108;-53
2021/09/18 04:19:14;;;;;;;1.90;1.70;;;;;;;;;;5085371;28;20024;-54
2021/09/18 04:21:40;;;;;;;1.77;1.50;;;;;;;;;;5066434;28;20028;-53
2021/09/18 04:24:06;;;;;;;1.77;1.63;;;;;;;;;;5065202;28;20031;-54
2021/09/18 04:26:33;;;;;;;1.85;1.42;;;;;;;;;;5063816;28;20566;-54
2021/09/18 04:28:59;;;;;;;1.58;1.48;;;;;;;;;;5065467;28;20111;-53
2021/09/18 04:31:26;;;;;;;1.42;1.33;;;;;;;;;;5062808;28;20068;-52
2021/09/18 04:33:52;;;;;;;1.95;1.67;;;;;;;;;;5065288;28;20144;-54
2021/09/18 04:36:18;;;;;;;2.33;1.30;;;;;;;;;;5064516;28;20104;-53
2021/09/18 04:38:45;;;;;;;1.65;1.38;;;;;;;;;;5065922;28;20503;-53
2021/09/18 04:41:11;;;;;;;1.75;1.60;;;;;;;;;;5064225;28;20526;-51
2021/09/18 04:43:38;;;;;;;2.22;1.70;;;;;;;;;;5064753;28;20037;-53
2021/09/18 04:46:04;;;;;;;2.03;1.65;;;;;;;;;;5064941;28;20039;-53
2021/09/18 04:48:30;;;;;;;1.67;1.58;;;;;;;;;;5064963;28;20074;-53
2021/09/18 04:50:56;;;;;;;1.73;1.63;;;;;;;;;;5063722;28;20036;-53
2021/09/18 04:53:22;;;;;;;1.90;1.80;;;;;;;;;;5064502;28;20558;-53
2021/09/18 04:55:48;;;;;;;1.75;1.63;;;;;;;;;;5064886;28;20021;-53
2021/09/18 04:58:15;;;;;;;2.65;2.00;;;;;;;;;;5065003;28;20146;-53
2021/09/18 05:00:41;;;;;;;1.80;1.70;;;;;;;;;;5064431;28;20134;-54
2021/09/18 05:03:08;;;;;;;1.90;1.80;;;;;;;;;;5063959;28;20791;-54
2021/09/18 05:05:34;;;;;;;2.28;2.08;;;;;;;;;;5064905;28;20020;-54
2021/09/18 05:08:00;;;;;;;2.55;2.20;;;;;;;;;;5066883;28;20024;-53
2021/09/18 05:10:27;;;;;;;2.33;1.83;;;;;;;;;;5084674;28;20028;-54
2021/09/18 05:12:53;;;;;;;2.47;1.77;;;;;;;;;;5084768;28;20504;-53
2021/09/18 05:15:19;;;;;;;1.83;1.65;;;;;;;;;;5077112;28;20064;-53
2021/09/18 05:17:45;;;;;;;2.15;1.95;;;;;;;;;;5073750;28;20028;-52
2021/09/18 05:20:11;;;;;;;2.03;1.83;;;;;;;;;;5085095;28;20028;-53
2021/09/18 05:22:37;;;;;;;3.72;1.95;;;;;;;;;;5084951;28;20457;-50
2021/09/18 05:25:04;;;;;;;2.20;1.88;;;;;;;;;;5080536;28;20043;-53
2021/09/18 05:27:30;;;;;;;1.98;1.70;;;;;;;;;;5064396;28;20483;-54
2021/09/18 05:29:56;;;;;;;2.22;2.03;;;;;;;;;;5046662;28;20029;-52
2021/09/18 05:32:22;;;;;;;2.22;2.00;;;;;;;;;;5066259;28;20025;-51
2021/09/18 05:34:48;;;;;;;2.10;1.90;;;;;;;;;;5067453;28;20054;-54
2021/09/18 05:37:14;;;;;;;2.42;2.22;;;;;;;;;;5087273;28;20093;-52
2021/09/18 05:39:40;;;;;;;1.90;1.70;;;;;;;;;;5088198;28;20024;-53
2021/09/18 05:42:06;;;;;;;1.98;1.63;;;;;;;;;;5085821;28;20043;-54
2021/09/18 05:44:33;;;;;;;1.67;1.58;;;;;;;;;;5088401;28;20035;-53
2021/09/18 05:46:59;;;;;;;2.00;1.80;;;;;;;;;;5088218;28;20035;-53
2021/09/18 05:49:25;;;;;;;2.20;2.00;;;;;;;;;;5087996;28;20094;-52
2021/09/18 05:51:52;;;;;;;1.90;1.77;;;;;;;;;;5072629;28;20035;-53
2021/09/18 05:54:18;;;;;;;2.10;1.90;;;;;;;;;;5080882;28;20107;-53
2021/09/18 05:56:44;;;;;;;2.47;2.03;;;;;;;;;;5089113;28;20055;-54
2021/09/18 05:59:10;;;;;;;2.45;1.90;;;;;;;;;;5088448;28;20073;-53
2021/09/18 06:01:37;;;;;;;2.30;1.52;;;;;;;;;;5087198;28;20411;-53
2021/09/18 06:04:03;;;;;;;2.15;1.95;;;;;;;;;;5065135;28;20032;-53
2021/09/18 06:06:29;;;;;;;1.83;1.73;;;;;;;;;;5081500;28;20028;-54
2021/09/18 06:08:55;;;;;;;2.25;1.70;;;;;;;;;;5076570;28;20632;-54
2021/09/18 06:11:21;;;;;;;1.60;1.50;;;;;;;;;;5086882;28;20618;-53
2021/09/18 06:13:48;;;;;;;2.13;1.63;;;;;;;;;;5067580;28;20646;-54
2021/09/18 06:16:15;;;;;;;1.80;1.50;;;;;;;;;;5063291;28;20484;-53
2021/09/18 06:18:41;;;;;;;1.80;1.70;;;;;;;;;;5067358;28;20029;-55
2021/09/18 06:21:08;;;;;;;2.10;1.75;;;;;;;;;;5075378;28;20047;-53
2021/09/18 06:23:37;;;;;;;1.75;1.65;;;;;;;;;;5067828;28;20528;-54
2021/09/18 06:26:04;;;;;;;2.08;1.60;;;;;;;;;;5078470;28;20029;-53
2021/09/18 06:28:30;;;;;;;1.85;1.60;;;;;;;;;;5059145;28;20036;-53
2021/09/18 06:30:56;;;;;;;1.95;1.77;;;;;;;;;;5066250;28;20035;-54
2021/09/18 06:33:22;;;;;;;1.85;1.60;;;;;;;;;;5082176;28;20103;-53
2021/09/18 06:35:48;;;;;;;2.55;1.60;;;;;;;;;;5088651;28;20047;-55
2021/09/18 06:38:21;;;;;;;1.75;1.60;;;;;;;;;;5088946;28;20016;-53
2021/09/18 06:40:47;;;;;;;1.80;1.60;;;;;;;;;;5083486;28;20094;-53
2021/09/18 06:43:13;;;;;;;2.35;1.65;;;;;;;;;;5074500;28;20032;-54
2021/09/18 06:45:39;;;;;;;1.40;1.30;;;;;;;;;;5066427;28;20453;-53
2021/09/18 06:48:05;;;;;;;1.63;1.52;;;;;;;;;;5071173;28;20510;-54
2021/09/18 06:50:31;;;;;;;1.40;1.30;;;;;;;;;;5067432;28;20502;-53
2021/09/18 06:52:57;;;;;;;1.67;1.42;;;;;;;;;;5067576;28;20419;-53
2021/09/18 06:55:24;;;;;;;1.73;1.60;;;;;;;;;;5066752;28;20058;-51
2021/09/18 06:57:50;;;;;;;1.50;1.40;;;;;;;;;;5085382;28;20030;-55
2021/09/18 07:00:17;;;;;;;1.40;1.30;;;;;;;;;;5082538;28;20024;-54
2021/09/18 07:02:43;;;;;;;1.45;1.35;;;;;;;;;;5076515;28;20123;-54
2021/09/18 07:05:09;;;;;;;1.52;1.42;;;;;;;;;;5079128;28;20681;-53
2021/09/18 07:07:36;;;;;;;1.65;1.50;;;;;;;;;;5070665;28;20020;-55
2021/09/18 07:10:03;;;;;;;1.77;1.65;;;;;;;;;;5065066;28;20417;-55
2021/09/18 07:12:29;;;;;;;3.00;1.73;;;;;;;;;;5052643;28;20031;-53
2021/09/18 07:14:55;;;;;;;1.52;1.42;;;;;;;;;;5067367;28;20457;-53
2021/09/18 07:17:21;;;;;;;1.65;1.55;;;;;;;;;;5070336;28;20571;-53
2021/09/18 07:19:47;;;;;;;1.60;1.50;;;;;;;;;;5085786;28;20494;-55
2021/09/18 07:22:14;;;;;;;1.88;1.50;;;;;;;;;;5086444;28;20031;-51
2021/09/18 07:24:40;;;;;;;1.60;1.48;;;;;;;;;;5078412;28;20082;-54
2021/09/18 07:27:06;;;;;;;1.38;1.27;;;;;;;;;;5073891;28;20047;-56
2021/09/18 07:29:32;;;;;;;1.50;1.40;;;;;;;;;;5071347;28;20047;-53
2021/09/18 07:31:58;;;;;;;2.03;1.83;;;;;;;;;;5075053;28;20028;-52
2021/09/18 07:34:24;;;;;;;1.73;1.63;;;;;;;;;;5071543;28;20664;-54
2021/09/18 07:36:50;;;;;;;1.77;1.63;;;;;;;;;;5056864;28;20050;-57
2021/09/18 07:39:18;;;;;;;1.80;1.70;;;;;;;;;;5066578;28;20033;-56
2021/09/18 07:41:44;;;;;;;1.58;1.48;;;;;;;;;;5049445;28;20408;-56
2021/09/18 07:44:11;;;;;;;1.60;1.50;;;;;;;;;;5047631;28;20028;-55
2021/09/18 07:46:37;;;;;;;1.60;1.50;;;;;;;;;;5073322;28;20020;-56
2021/09/18 07:49:03;;;;;;;2.17;1.70;;;;;;;;;;5066451;28;20033;-56
2021/09/18 07:51:29;;;;;;;1.50;1.40;;;;;;;;;;5066585;28;20111;-55
2021/09/18 07:53:55;;;;;;;1.85;1.42;;;;;;;;;;5066301;28;20614;-53
2021/09/18 07:56:21;;;;;;;1.48;1.38;;;;;;;;;;5047658;28;20115;-57
2021/09/18 07:58:47;;;;;;;1.60;1.50;;;;;;;;;;5066440;28;20398;-57
2021/09/18 08:01:13;;;;;;;2.03;1.80;;;;;;;;;;5066374;28;20044;-55
2021/09/18 08:03:39;;;;;;;1.70;1.50;;;;;;;;;;5065812;28;20422;-56
2021/09/18 08:06:06;;;;;;;1.55;1.45;;;;;;;;;;5065429;28;20718;-57
2021/09/18 08:08:32;;;;;;;1.58;1.25;;;;;;;;;;5066639;28;20046;-57
2021/09/18 08:10:58;;;;;;;1.73;1.35;;;;;;;;;;5067365;28;20360;-57
2021/09/18 08:13:25;;;;;;;1.67;1.40;;;;;;;;;;5086354;28;20024;-57
2021/09/18 08:15:51;;;;;;;1.50;1.40;;;;;;;;;;5066874;28;20024;-56
2021/09/18 08:18:17;;;;;;;1.65;1.55;;;;;;;;;;5068082;28;20028;-56
2021/09/18 08:20:43;;;;;;;1.55;1.45;;;;;;;;;;5087263;28;20391;-57
2021/09/18 08:23:09;;;;;;;2.13;1.58;;;;;;;;;;5065619;28;20971;-58
2021/09/18 08:25:35;;;;;;;1.45;1.35;;;;;;;;;;5068477;28;20039;-57
2021/09/18 08:28:02;;;;;;;1.52;1.40;;;;;;;;;;5048057;28;20035;-58
2021/09/18 08:30:29;;;;;;;1.25;1.15;;;;;;;;;;5064968;28;20317;-57
2021/09/18 08:32:56;;;;;;;1.60;1.50;;;;;;;;;;5049681;28;20053;-58
2021/09/18 08:35:22;;;;;;;1.88;1.30;;;;;;;;;;5045156;28;20441;-58
2021/09/18 08:37:48;;;;;;;1.55;1.45;;;;;;;;;;5064421;28;20036;-57
2021/09/18 08:40:14;;;;;;;1.88;1.30;;;;;;;;;;5063591;28;20025;-55
2021/09/18 08:42:41;;;;;;;1.40;1.30;;;;;;;;;;5065468;28;20444;-56
2021/09/18 08:45:10;;;;;;;1.40;1.30;;;;;;;;;;5065755;28;20030;-54
2021/09/18 08:47:37;;;;;;;1.88;1.60;;;;;;;;;;5071581;28;20046;-57
2021/09/18 08:50:04;;;;;;;1.90;1.40;;;;;;;;;;5070273;28;20027;-56
2021/09/18 08:52:31;;;;;;;1.30;1.20;;;;;;;;;;5076574;28;20024;-56
2021/09/18 08:54:57;;;;;;;1.13;1.10;;;;;;;;;;5074614;28;20036;-55
2021/09/18 08:57:23;;;;;;;1.65;1.55;;;;;;;;;;5066112;28;20032;-55
2021/09/18 08:59:50;;;;;;;1.70;1.60;;;;;;;;;;5085518;28;20028;-55
2021/09/18 09:02:20;;;;;;;1.45;1.30;;;;;;;;;;5082408;28;20402;-57
2021/09/18 09:04:46;;;;;;;1.45;1.33;;;;;;;;;;5069867;28;20016;-57
2021/09/18 09:07:14;;;;;;;1.40;1.30;;;;;;;;;;5077571;28;20033;-56
2021/09/18 09:10:09;;;;;;;1.55;1.45;;;;;;;;;;5051931;28;20487;-56
2021/09/18 09:12:39;;;;;;;1.35;1.25;;;;;;;;;;5065316;28;20074;-56
2021/09/18 09:15:06;;;;;;;3.10;2.25;;;;;;;;;;5069834;28;20081;-55
2021/09/18 09:17:33;;;;;;;6.22;3.92;;;;;;;;;;5061894;28;20119;-56
2021/09/18 09:20:00;;;;;;;4.82;3.78;;;;;;;;;;5049323;28;20032;-56
2021/09/18 09:22:39;;;;;;;4.95;3.20;;;;;;;;;;5062780;28;20480;-56
2021/09/18 09:25:06;;;;;;;4.60;2.78;;;;;;;;;;5068906;28;20400;-55
2021/09/18 09:27:33;;;;;;;2.50;1.98;;;;;;;;;;5051062;28;20024;-56
2021/09/18 09:29:59;;;;;;;2.88;1.80;;;;;;;;;;5068957;28;20040;-56
2021/09/18 09:32:37;;;;;;;1.75;1.60;;;;;;;;;;5068579;28;20039;-55
2021/09/18 09:35:06;;;;;;;1.67;1.50;;;;;;;;;;5068926;28;20024;-56
2021/09/18 09:37:32;;;;;;;1.48;1.38;;;;;;;;;;5068904;28;20472;-56
2021/09/18 09:40:00;;;;;;;4.95;3.35;;;;;;;;;;5068865;28;20028;-57
2021/09/18 09:42:30;;;;;;;5.05;3.55;;;;;;;;;;5079016;28;20024;-54
2021/09/18 09:45:15;;;;;;;3.40;2.85;;;;;;;;;;5088904;28;20024;-57
2021/09/18 09:47:42;;;;;;;2.50;2.22;;;;;;;;;;5089650;28;20027;-57
2021/09/18 09:50:08;;;;;;;2.13;1.83;;;;;;;;;;5088792;28;20031;-57
2021/09/18 09:52:35;;;;;;;2.10;1.88;;;;;;;;;;5060113;28;20521;-57
2021/09/18 09:55:11;;;;;;;1.88;1.70;;;;;;;;;;5070184;28;20027;-58
2021/09/18 09:57:38;;;;;;;2.17;1.90;;;;;;;;;;5065492;28;20039;-57
2021/09/18 10:00:06;;;;;;;1.83;1.40;;;;;;;;;;5069785;28;20503;-57
2021/09/18 10:02:32;;;;;;;1.30;1.20;;;;;;;;;;5069427;28;20024;-57
2021/09/18 10:04:58;;;;;;;1.83;1.52;;;;;;;;;;5070168;28;20032;-56
2021/09/18 10:07:24;;;;;;;0.85;0.85;;;;;;;;;;5069731;28;20028;-57
2021/09/18 10:09:50;;;;;;;1.27;1.17;;;;;;;;;;5069681;28;20047;-55
2021/09/18 10:12:16;;;;;;;1.20;1.10;;;;;;;;;;5066903;28;20557;-56
2021/09/18 10:14:52;;;;;;;0.90;0.90;;;;;;;;;;5082251;28;20113;-56
2021/09/18 10:17:18;;;;;;;0.85;0.85;;;;;;;;;;5076856;28;20090;-57
2021/09/18 10:25:05;;;;;;;0.77;0.77;;;;;;;;;;5069729;28;20040;-57
2021/09/18 10:27:31;;;;;;;0.88;0.88;;;;;;;;;;5069058;28;20502;-55
2021/09/18 10:29:57;;;;;;;0.88;0.88;;;;;;;;;;5069701;28;20203;-55
2021/09/18 10:32:24;;;;;;;0.95;0.95;;;;;;;;;;5068678;28;20024;-56
2021/09/18 10:35:09;;;;;;;1.10;1.00;;;;;;;;;;5069282;28;20107;-57
2021/09/18 10:37:37;;;;;;;0.90;0.90;;;;;;;;;;5068568;28;20020;-57
2021/09/18 10:40:08;;;;;;;0.90;0.90;;;;;;;;;;5068761;28;20039;-56
2021/09/18 10:42:36;;;;;;;0.90;0.90;;;;;;;;;;5069344;28;20365;-56
2021/09/18 10:45:03;;;;;;;0.88;0.88;;;;;;;;;;5068754;28;20048;-55
2021/09/18 10:47:37;;;;;;;0.95;0.70;;;;;;;;;;5069288;28;20157;-56
2021/09/18 10:50:24;;;;;;;0.70;0.70;;;;;;;;;;5068962;28;20036;-57
2021/09/18 10:53:01;;;;;;;0.70;0.70;;;;;;;;;;5067794;28;20037;-57
2021/09/18 10:55:28;;;;;;;0.80;0.70;;;;;;;;;;5067653;28;20035;-58
2021/09/18 10:57:54;;;;;;;0.85;0.80;;;;;;;;;;5068726;28;20118;-57
2021/09/18 11:00:20;;;;;;;0.60;0.60;;;;;;;;;;5070200;28;20028;-64
2021/09/18 11:02:52;;;;;;;0.80;0.80;;;;;;;;;;5067197;28;20510;-63
2021/09/18 11:05:21;;;;;;;0.60;0.60;;;;;;;;;;5080798;28;20081;-64
2021/09/18 11:07:47;;;;;;;0.75;0.75;;;;;;;;;;5079512;28;20063;-64
2021/09/18 11:10:15;;;;;;;0.80;0.80;;;;;;;;;;5077564;28;20024;-63
2021/09/18 11:12:41;;;;;;;0.70;0.70;;;;;;;;;;5056458;28;20111;-63
2021/09/18 11:15:07;;;;;;;0.82;0.70;;;;;;;;;;5087572;28;20062;-63
2021/09/18 11:17:34;;;;;;;0.60;0.60;;;;;;;;;;5070074;28;20025;-63
2021/09/18 11:20:20;;;;;;;0.70;0.70;;;;;;;;;;5067343;28;20020;-63
2021/09/18 11:22:52;;;;;;;0.70;0.70;;;;;;;;;;5069888;28;20569;-63
2021/09/18 11:25:31;;;;;;;1.35;0.80;;;;;;;;;;5069883;28;20037;-63
2021/09/18 11:28:04;;;;;;;0.60;0.60;;;;;;;;;;5066507;28;20030;-63
2021/09/18 11:30:39;;;;;;;0.63;0.63;;;;;;;;;;5063687;28;20047;-64
2021/09/18 11:33:05;;;;;;;0.80;0.80;;;;;;;;;;5077515;28;20032;-63
2021/09/18 11:35:33;;;;;;;0.70;0.70;;;;;;;;;;5083923;28;20024;-63
2021/09/18 11:38:04;;;;;;;0.75;0.75;;;;;;;;;;5085772;28;20058;-64
2021/09/18 11:40:32;;;;;;;1.25;0.70;;;;;;;;;;5078811;28;20021;-64
2021/09/18 11:42:59;;;;;;;0.90;0.90;;;;;;;;;;5066193;28;20048;-63
2021/09/18 11:45:26;;;;;;;0.57;0.57;;;;;;;;;;5065909;28;20060;-63
2021/09/18 11:47:53;;;;;;;0.68;0.60;;;;;;;;;;5087203;28;20024;-63
2021/09/18 11:50:19;;;;;;;0.63;0.63;;;;;;;;;;5053308;28;20454;-63
2021/09/18 11:52:45;;;;;;;0.60;0.60;;;;;;;;;;5066826;28;20487;-63
2021/09/18 11:55:31;;;;;;;0.80;0.80;;;;;;;;;;5062950;28;20091;-64
2021/09/18 11:58:00;;;;;;;0.73;0.73;;;;;;;;;;5065561;28;20048;-64
2021/09/18 12:00:26;;;;;;;0.60;0.60;;;;;;;;;;5066442;28;20024;-64
2021/09/18 12:02:57;;;;;;;0.50;0.50;;;;;;;;;;5064886;28;20112;-64
2021/09/18 12:05:24;;;;;;;0.80;0.80;;;;;;;;;;5049251;28;20029;-64
2021/09/18 12:07:51;;;;;;;0.70;0.70;;;;;;;;;;5062393;28;20028;-64
2021/09/18 12:10:22;;;;;;;0.80;0.80;;;;;;;;;;5066536;28;20028;-64
2021/09/18 12:12:54;;;;;;;0.80;0.80;;;;;;;;;;5066391;28;20404;-64
2021/09/18 12:15:37;;;;;;;0.50;0.50;;;;;;;;;;5065293;28;20025;-64
2021/09/18 12:18:04;;;;;;;1.10;0.73;;;;;;;;;;5066100;28;20103;-64
2021/09/18 12:20:32;;;;;;;0.50;0.50;;;;;;;;;;5066548;28;20149;-64
2021/09/18 12:22:58;;;;;;;1.00;0.60;;;;;;;;;;5066622;28;20249;-62
2021/09/18 12:25:28;;;;;;;0.80;0.80;;;;;;;;;;5066006;28;20036;-62
2021/09/18 12:27:55;;;;;;;0.60;0.60;;;;;;;;;;5065951;28;20029;-62
2021/09/18 12:30:25;;;;;;;0.70;0.70;;;;;;;;;;5065936;28;20063;-63
2021/09/18 12:33:20;;;;;;;1.15;0.90;;;;;;;;;;5066208;28;20441;-62
2021/09/18 12:35:48;;;;;;;0.88;0.88;;;;;;;;;;5049036;28;20040;-63
2021/09/18 12:38:16;;;;;;;0.63;0.63;;;;;;;;;;5066833;28;20503;-62
2021/09/18 12:40:49;;;;;;;0.60;0.60;;;;;;;;;;5066623;28;20078;-62
2021/09/18 12:43:22;;;;;;;0.90;0.90;;;;;;;;;;5065726;28;20085;-62
2021/09/18 12:45:51;;;;;;;0.70;0.70;;;;;;;;;;5066185;28;20028;-62
2021/09/18 12:48:24;;;;;;;0.63;0.63;;;;;;;;;;5065637;28;20042;-62
2021/09/18 12:50:54;;;;;;;0.63;0.63;;;;;;;;;;5066105;28;20025;-62
2021/09/18 12:53:29;;;;;;;0.70;0.70;;;;;;;;;;5065565;28;20033;-62
2021/09/18 12:56:14;;;;;;;0.73;0.73;;;;;;;;;;5065678;28;20043;-63
2021/09/18 12:58:42;;;;;;;0.73;0.70;;;;;;;;;;5066476;28;20029;-62
2021/09/18 13:01:09;;;;;;;2.72;0.60;;;;;;;;;;5065137;28;20031;-62
2021/09/18 13:03:35;;;;;;;0.47;0.47;;;;;;;;;;5065489;28;20414;-63
2021/09/18 13:06:04;;;;;;;0.55;0.55;;;;;;;;;;5065431;28;20029;-62
2021/09/18 13:08:43;;;;;;;0.80;0.65;;;;;;;;;;5063841;28;20056;-62
2021/09/18 13:11:10;;;;;;;0.60;0.60;;;;;;;;;;5065927;28;20407;-63
2021/09/18 13:13:39;;;;;;;0.47;0.47;;;;;;;;;;5065983;28;20025;-63
2021/09/18 13:16:06;;;;;;;0.50;0.50;;;;;;;;;;5065626;28;20134;-62
2021/09/18 13:18:33;;;;;;;0.70;0.70;;;;;;;;;;5065744;28;20051;-62
2021/09/18 13:20:59;;;;;;;0.60;0.60;;;;;;;;;;5065960;28;20104;-62
2021/09/18 13:23:25;;;;;;;0.70;0.70;;;;;;;;;;5065363;28;20112;-62
2021/09/18 13:25:51;;;;;;;0.70;0.70;;;;;;;;;;5065831;28;20109;-62
2021/09/18 13:28:17;;;;;;;0.68;0.68;;;;;;;;;;5065390;28;20028;-62
2021/09/18 13:30:44;;;;;;;0.68;0.68;;;;;;;;;;5066085;28;20028;-62
2021/09/18 13:33:10;;;;;;;0.80;0.80;;;;;;;;;;5065960;28;20067;-62
2021/09/18 13:35:36;;;;;;;0.70;0.70;;;;;;;;;;5065183;28;20020;-62
2021/09/18 13:38:03;;;;;;;1.00;0.70;;;;;;;;;;5048248;28;20104;-63
2021/09/18 13:40:29;;;;;;;0.70;0.70;;;;;;;;;;5064385;28;20017;-62
2021/09/18 13:42:55;;;;;;;0.50;0.50;;;;;;;;;;5065921;28;20033;-62
2021/09/18 13:45:21;;;;;;;0.60;0.60;;;;;;;;;;5065275;28;20104;-62
2021/09/18 13:47:48;;;;;;;0.52;0.52;;;;;;;;;;5064223;28;20028;-62
2021/09/18 13:50:15;;;;;;;0.80;0.80;;;;;;;;;;5065774;28;20027;-62
2021/09/18 13:52:41;;;;;;;0.55;0.55;;;;;;;;;;5066995;28;20016;-62
2021/09/18 13:55:08;;;;;;;0.57;0.57;;;;;;;;;;5066984;28;20043;-62
2021/09/18 13:57:34;;;;;;;0.60;0.60;;;;;;;;;;5067793;28;20020;-61
2021/09/18 14:00:00;;;;;;;0.80;0.70;;;;;;;;;;5068555;28;20506;-62
2021/09/18 14:02:27;;;;;;;0.65;0.65;;;;;;;;;;5068228;28;20080;-62
2021/09/18 14:04:53;;;;;;;0.60;0.60;;;;;;;;;;5066636;28;20535;-62
2021/09/18 14:07:19;;;;;;;0.68;0.50;;;;;;;;;;5068149;28;20550;-62
2021/09/18 14:09:45;;;;;;;0.50;0.50;;;;;;;;;;5067368;28;20060;-62
2021/09/18 14:12:12;;;;;;;0.60;0.60;;;;;;;;;;5069039;28;20016;-62
2021/09/18 14:14:39;;;;;;;0.50;0.50;;;;;;;;;;5068153;28;20033;-62
2021/09/18 14:17:05;;;;;;;0.60;0.55;;;;;;;;;;5068160;28;20067;-62
2021/09/18 14:19:31;;;;;;;0.50;0.50;;;;;;;;;;5068908;28;20040;-62
2021/09/18 14:21:57;;;;;;;0.50;0.50;;;;;;;;;;5069499;28;20142;-62
2021/09/18 14:24:23;;;;;;;0.57;0.57;;;;;;;;;;5068754;28;20044;-61
2021/09/18 14:26:49;;;;;;;0.50;0.50;;;;;;;;;;5066929;28;20028;-64
2021/09/18 14:29:15;;;;;;;0.45;0.45;;;;;;;;;;5067612;28;20082;-63
2021/09/18 14:31:42;;;;;;;0.55;0.55;;;;;;;;;;5067991;28;20056;-64
2021/09/18 14:34:09;;;;;;;0.60;0.60;;;;;;;;;;5058752;28;20033;-63
2021/09/18 14:36:36;;;;;;;0.63;0.63;;;;;;;;;;5059035;28;20462;-64
2021/09/18 14:39:05;;;;;;;0.60;0.60;;;;;;;;;;5049439;28;20078;-63
2021/09/18 14:41:32;;;;;;;0.73;0.73;;;;;;;;;;5047533;28;20455;-63
2021/09/18 14:43:59;;;;;;;0.73;0.73;;;;;;;;;;5057572;28;20040;-63
2021/09/18 14:46:25;;;;;;;0.60;0.60;;;;;;;;;;5067299;28;20436;-63
2021/09/18 14:48:51;;;;;;;0.70;0.70;;;;;;;;;;5067257;28;20620;-63